sensor_id;sensor_type;location;lat;lon;timestamp;temperature;humidity
54898;DHT22;40800;52.704;6.398;2023-10-31T00:01:49;14.50;99.90
54898;DHT22;40800;52.704;6.398;2023-10-31T00:04:15;15.40;99.90
54898;DHT22;40800;52.704;6.398;2023-10-31T00:06:40;14.30;99.90
54898;DHT22;40800;52.704;6.398;2023-10-31T00:09:06;15.00;99.90
54898;DHT22;40800;52.704;6.398;2023-10-31T00:11:32;15.20;99.90
54898;DHT22;40800;52.704;6.398;2023-10-31T00:13:57;14.40;99.90
54898;DHT22;40800;52.704;6.398;2023-10-31T00:16:23;15.00;99.90
54898;DHT22;40800;52.704;6.398;2023-10-31T00:18:48;14.10;99.90
54898;DHT22;40800;52.704;6.398;2023-10-31T00:21:14;14.50;99.90
54898;DHT22;40800;52.704;6.398;2023-10-31T00:23:47;15.10;99.90
54898;DHT22;40800;52.704;6.398;2023-10-31T00:26:13;14.30;99.90
54898;DHT22;40800;52.704;6.398;2023-10-31T00:28:38;14.10;99.90
54898;DHT22;40800;52.704;6.398;2023-10-31T00:31:04;14.00;99.90
54898;DHT22;40800;52.704;6.398;2023-10-31T00:33:32;15.00;99.90
54898;DHT22;40800;52.704;6.398;2023-10-31T00:35:57;13.90;99.90
54898;DHT22;40800;52.704;6.398;2023-10-31T00:38:23;15.10;99.90
54898;DHT22;40800;52.704;6.398;2023-10-31T00:40:48;14.90;99.90
54898;DHT22;40800;52.704;6.398;2023-10-31T00:43:14;14.70;99.90
54898;DHT22;40800;52.704;6.398;2023-10-31T00:45:39;14.60;99.90
54898;DHT22;40800;52.704;6.398;2023-10-31T00:48:05;14.70;99.90
54898;DHT22;40800;52.704;6.398;2023-10-31T00:50:31;13.60;99.90
54898;DHT22;40800;52.704;6.398;2023-10-31T00:52:56;14.40;99.90
54898;DHT22;40800;52.704;6.398;2023-10-31T00:55:22;13.40;99.90
54898;DHT22;40800;52.704;6.398;2023-10-31T00:57:47;14.50;99.90
54898;DHT22;40800;52.704;6.398;2023-10-31T01:00:13;14.20;99.90
54898;DHT22;40800;52.704;6.398;2023-10-31T01:02:39;13.80;99.90
54898;DHT22;40800;52.704;6.398;2023-10-31T01:05:05;13.10;99.90
54898;DHT22;40800;52.704;6.398;2023-10-31T01:07:30;14.40;99.90
54898;DHT22;40800;52.704;6.398;2023-10-31T01:09:56;14.40;99.90
54898;DHT22;40800;52.704;6.398;2023-10-31T01:12:21;14.10;99.90
54898;DHT22;40800;52.704;6.398;2023-10-31T01:14:47;14.20;99.90
54898;DHT22;40800;52.704;6.398;2023-10-31T01:17:13;12.80;99.90
54898;DHT22;40800;52.704;6.398;2023-10-31T01:19:39;13.90;99.90
54898;DHT22;40800;52.704;6.398;2023-10-31T01:22:04;13.10;99.90
54898;DHT22;40800;52.704;6.398;2023-10-31T01:24:30;12.80;99.90
54898;DHT22;40800;52.704;6.398;2023-10-31T01:26:55;13.10;99.90
54898;DHT22;40800;52.704;6.398;2023-10-31T01:29:21;13.70;99.90
54898;DHT22;40800;52.704;6.398;2023-10-31T01:31:47;12.60;99.90
54898;DHT22;40800;52.704;6.398;2023-10-31T01:34:12;12.80;99.90
54898;DHT22;40800;52.704;6.398;2023-10-31T01:36:38;13.00;99.90
54898;DHT22;40800;52.704;6.398;2023-10-31T01:39:03;13.70;99.90
54898;DHT22;40800;52.704;6.398;2023-10-31T01:41:29;12.50;99.90
54898;DHT22;40800;52.704;6.398;2023-10-31T01:43:54;13.80;99.90
54898;DHT22;40800;52.704;6.398;2023-10-31T01:46:20;12.60;99.90
54898;DHT22;40800;52.704;6.398;2023-10-31T01:48:46;13.20;99.90
54898;DHT22;40800;52.704;6.398;2023-10-31T01:51:11;13.80;99.90
54898;DHT22;40800;52.704;6.398;2023-10-31T01:53:37;13.70;99.90
54898;DHT22;40800;52.704;6.398;2023-10-31T01:56:03;12.70;99.90
54898;DHT22;40800;52.704;6.398;2023-10-31T01:58:34;12.60;99.90
54898;DHT22;40800;52.704;6.398;2023-10-31T02:01:00;13.80;99.90
54898;DHT22;40800;52.704;6.398;2023-10-31T02:03:28;13.60;99.90
54898;DHT22;40800;52.704;6.398;2023-10-31T02:05:54;13.00;99.90
54898;DHT22;40800;52.704;6.398;2023-10-31T02:08:20;13.70;99.90
54898;DHT22;40800;52.704;6.398;2023-10-31T02:10:46;12.50;99.90
54898;DHT22;40800;52.704;6.398;2023-10-31T02:13:16;13.70;99.90
54898;DHT22;40800;52.704;6.398;2023-10-31T02:15:42;13.30;99.90
54898;DHT22;40800;52.704;6.398;2023-10-31T02:18:08;12.50;99.90
54898;DHT22;40800;52.704;6.398;2023-10-31T02:20:35;13.60;99.90
54898;DHT22;40800;52.704;6.398;2023-10-31T02:23:02;13.00;99.90
54898;DHT22;40800;52.704;6.398;2023-10-31T02:25:27;13.90;99.90
54898;DHT22;40800;52.704;6.398;2023-10-31T02:27:53;12.40;99.90
54898;DHT22;40800;52.704;6.398;2023-10-31T02:30:19;12.70;99.90
54898;DHT22;40800;52.704;6.398;2023-10-31T02:32:44;12.50;99.90
54898;DHT22;40800;52.704;6.398;2023-10-31T02:35:10;12.40;99.90
54898;DHT22;40800;52.704;6.398;2023-10-31T02:37:36;12.60;99.90
54898;DHT22;40800;52.704;6.398;2023-10-31T02:40:02;12.50;99.90
54898;DHT22;40800;52.704;6.398;2023-10-31T02:42:27;13.30;99.90
54898;DHT22;40800;52.704;6.398;2023-10-31T02:44:53;13.30;99.90
54898;DHT22;40800;52.704;6.398;2023-10-31T02:47:19;13.10;99.90
54898;DHT22;40800;52.704;6.398;2023-10-31T02:49:45;13.60;99.90
54898;DHT22;40800;52.704;6.398;2023-10-31T02:52:11;13.60;99.90
54898;DHT22;40800;52.704;6.398;2023-10-31T02:54:36;12.90;99.90
54898;DHT22;40800;52.704;6.398;2023-10-31T02:57:02;12.80;99.90
54898;DHT22;40800;52.704;6.398;2023-10-31T02:59:28;12.70;99.90
54898;DHT22;40800;52.704;6.398;2023-10-31T03:01:56;13.60;99.90
54898;DHT22;40800;52.704;6.398;2023-10-31T03:04:22;14.00;99.90
54898;DHT22;40800;52.704;6.398;2023-10-31T03:06:48;13.00;99.90
54898;DHT22;40800;52.704;6.398;2023-10-31T03:09:14;13.10;99.90
54898;DHT22;40800;52.704;6.398;2023-10-31T03:11:39;13.90;99.90
54898;DHT22;40800;52.704;6.398;2023-10-31T03:14:05;12.80;99.90
54898;DHT22;40800;52.704;6.398;2023-10-31T03:16:31;14.00;99.90
54898;DHT22;40800;52.704;6.398;2023-10-31T03:18:58;14.40;99.90
54898;DHT22;40800;52.704;6.398;2023-10-31T03:21:23;13.80;99.90
54898;DHT22;40800;52.704;6.398;2023-10-31T03:23:50;14.40;99.90
54898;DHT22;40800;52.704;6.398;2023-10-31T03:26:16;13.10;99.90
54898;DHT22;40800;52.704;6.398;2023-10-31T03:28:43;14.30;99.90
54898;DHT22;40800;52.704;6.398;2023-10-31T03:31:09;14.40;99.90
54898;DHT22;40800;52.704;6.398;2023-10-31T03:33:34;14.50;99.90
54898;DHT22;40800;52.704;6.398;2023-10-31T03:36:00;14.40;99.90
54898;DHT22;40800;52.704;6.398;2023-10-31T03:38:25;14.40;99.90
54898;DHT22;40800;52.704;6.398;2023-10-31T03:40:51;13.00;99.90
54898;DHT22;40800;52.704;6.398;2023-10-31T03:43:17;13.00;99.90
54898;DHT22;40800;52.704;6.398;2023-10-31T03:45:42;12.80;99.90
54898;DHT22;40800;52.704;6.398;2023-10-31T03:48:08;13.60;99.90
54898;DHT22;40800;52.704;6.398;2023-10-31T03:50:34;12.90;99.90
54898;DHT22;40800;52.704;6.398;2023-10-31T03:52:59;13.90;99.90
54898;DHT22;40800;52.704;6.398;2023-10-31T03:55:25;14.40;99.90
54898;DHT22;40800;52.704;6.398;2023-10-31T03:57:50;13.80;99.90
54898;DHT22;40800;52.704;6.398;2023-10-31T04:00:16;14.10;99.90
54898;DHT22;40800;52.704;6.398;2023-10-31T04:02:42;13.40;99.90
54898;DHT22;40800;52.704;6.398;2023-10-31T04:05:08;13.10;99.90
54898;DHT22;40800;52.704;6.398;2023-10-31T04:07:33;14.20;99.90
54898;DHT22;40800;52.704;6.398;2023-10-31T04:09:59;12.90;99.90
54898;DHT22;40800;52.704;6.398;2023-10-31T04:12:24;13.10;99.90
54898;DHT22;40800;52.704;6.398;2023-10-31T04:14:50;12.80;99.90
54898;DHT22;40800;52.704;6.398;2023-10-31T04:17:15;13.20;99.90
54898;DHT22;40800;52.704;6.398;2023-10-31T04:19:41;12.70;99.90
54898;DHT22;40800;52.704;6.398;2023-10-31T04:22:07;14.30;99.90
54898;DHT22;40800;52.704;6.398;2023-10-31T04:24:32;13.50;99.90
54898;DHT22;40800;52.704;6.398;2023-10-31T04:26:58;12.70;99.90
54898;DHT22;40800;52.704;6.398;2023-10-31T04:29:23;14.10;99.90
54898;DHT22;40800;52.704;6.398;2023-10-31T04:31:49;13.00;99.90
54898;DHT22;40800;52.704;6.398;2023-10-31T04:34:14;13.10;99.90
54898;DHT22;40800;52.704;6.398;2023-10-31T04:36:40;14.00;99.90
54898;DHT22;40800;52.704;6.398;2023-10-31T04:39:06;13.10;99.90
54898;DHT22;40800;52.704;6.398;2023-10-31T04:41:31;14.40;99.90
54898;DHT22;40800;52.704;6.398;2023-10-31T04:43:57;12.80;99.90
54898;DHT22;40800;52.704;6.398;2023-10-31T04:46:24;14.40;99.90
54898;DHT22;40800;52.704;6.398;2023-10-31T04:48:51;12.90;99.90
54898;DHT22;40800;52.704;6.398;2023-10-31T04:51:17;13.20;99.90
54898;DHT22;40800;52.704;6.398;2023-10-31T04:53:43;12.70;99.90
54898;DHT22;40800;52.704;6.398;2023-10-31T04:56:13;14.40;99.90
54898;DHT22;40800;52.704;6.398;2023-10-31T04:58:40;13.40;99.90
54898;DHT22;40800;52.704;6.398;2023-10-31T05:01:11;14.00;99.90
54898;DHT22;40800;52.704;6.398;2023-10-31T05:03:37;12.90;99.90
54898;DHT22;40800;52.704;6.398;2023-10-31T05:06:03;13.60;99.90
54898;DHT22;40800;52.704;6.398;2023-10-31T05:08:29;13.90;99.90
54898;DHT22;40800;52.704;6.398;2023-10-31T05:10:55;13.90;99.90
54898;DHT22;40800;52.704;6.398;2023-10-31T05:13:21;13.20;99.90
54898;DHT22;40800;52.704;6.398;2023-10-31T05:15:46;12.80;99.90
54898;DHT22;40800;52.704;6.398;2023-10-31T05:18:12;12.70;99.90
54898;DHT22;40800;52.704;6.398;2023-10-31T05:20:37;13.50;99.90
54898;DHT22;40800;52.704;6.398;2023-10-31T05:23:03;14.20;99.90
54898;DHT22;40800;52.704;6.398;2023-10-31T05:25:28;14.10;99.90
54898;DHT22;40800;52.704;6.398;2023-10-31T05:27:54;12.80;99.90
54898;DHT22;40800;52.704;6.398;2023-10-31T05:30:20;13.40;99.90
54898;DHT22;40800;52.704;6.398;2023-10-31T05:32:46;14.10;99.90
54898;DHT22;40800;52.704;6.398;2023-10-31T05:35:12;14.40;99.90
54898;DHT22;40800;52.704;6.398;2023-10-31T05:37:37;14.20;99.90
54898;DHT22;40800;52.704;6.398;2023-10-31T05:40:03;12.70;99.90
54898;DHT22;40800;52.704;6.398;2023-10-31T05:42:29;12.80;99.90
54898;DHT22;40800;52.704;6.398;2023-10-31T05:44:54;14.40;99.90
54898;DHT22;40800;52.704;6.398;2023-10-31T05:47:20;13.10;99.90
54898;DHT22;40800;52.704;6.398;2023-10-31T05:49:46;12.80;99.90
54898;DHT22;40800;52.704;6.398;2023-10-31T05:52:12;13.10;99.90
54898;DHT22;40800;52.704;6.398;2023-10-31T05:54:37;13.70;99.90
54898;DHT22;40800;52.704;6.398;2023-10-31T05:57:03;13.00;99.90
54898;DHT22;40800;52.704;6.398;2023-10-31T05:59:29;14.30;99.90
54898;DHT22;40800;52.704;6.398;2023-10-31T06:01:54;12.90;99.90
54898;DHT22;40800;52.704;6.398;2023-10-31T06:04:20;14.20;99.90
54898;DHT22;40800;52.704;6.398;2023-10-31T06:06:45;13.70;99.90
54898;DHT22;40800;52.704;6.398;2023-10-31T06:09:11;14.20;99.90
54898;DHT22;40800;52.704;6.398;2023-10-31T06:11:39;14.10;99.90
54898;DHT22;40800;52.704;6.398;2023-10-31T06:14:04;12.60;99.90
54898;DHT22;40800;52.704;6.398;2023-10-31T06:16:30;13.00;99.90
54898;DHT22;40800;52.704;6.398;2023-10-31T06:18:56;13.90;99.90
54898;DHT22;40800;52.704;6.398;2023-10-31T06:21:21;12.70;99.90
54898;DHT22;40800;52.704;6.398;2023-10-31T06:23:47;13.00;99.90
54898;DHT22;40800;52.704;6.398;2023-10-31T06:26:12;12.60;99.90
54898;DHT22;40800;52.704;6.398;2023-10-31T06:28:38;14.20;99.90
54898;DHT22;40800;52.704;6.398;2023-10-31T06:31:19;12.80;99.90
54898;DHT22;40800;52.704;6.398;2023-10-31T06:33:45;13.80;99.90
54898;DHT22;40800;52.704;6.398;2023-10-31T06:36:11;12.90;99.90
54898;DHT22;40800;52.704;6.398;2023-10-31T06:38:36;13.00;99.90
54898;DHT22;40800;52.704;6.398;2023-10-31T06:41:02;12.70;99.90
54898;DHT22;40800;52.704;6.398;2023-10-31T06:43:28;14.20;99.90
54898;DHT22;40800;52.704;6.398;2023-10-31T06:45:54;12.80;99.90
54898;DHT22;40800;52.704;6.398;2023-10-31T06:48:20;12.90;99.90
54898;DHT22;40800;52.704;6.398;2023-10-31T06:50:45;13.70;99.90
54898;DHT22;40800;52.704;6.398;2023-10-31T06:53:11;13.50;99.90
54898;DHT22;40800;52.704;6.398;2023-10-31T06:55:36;13.50;99.90
54898;DHT22;40800;52.704;6.398;2023-10-31T06:58:02;13.40;99.90
54898;DHT22;40800;52.704;6.398;2023-10-31T07:00:28;14.20;99.90
54898;DHT22;40800;52.704;6.398;2023-10-31T07:02:53;13.60;99.90
54898;DHT22;40800;52.704;6.398;2023-10-31T07:05:19;13.00;99.90
54898;DHT22;40800;52.704;6.398;2023-10-31T07:07:46;13.00;99.90
54898;DHT22;40800;52.704;6.398;2023-10-31T07:10:12;12.90;99.90
54898;DHT22;40800;52.704;6.398;2023-10-31T07:12:38;12.80;99.90
54898;DHT22;40800;52.704;6.398;2023-10-31T07:15:04;13.20;99.90
54898;DHT22;40800;52.704;6.398;2023-10-31T07:17:30;14.20;99.90
54898;DHT22;40800;52.704;6.398;2023-10-31T07:19:56;14.40;99.90
54898;DHT22;40800;52.704;6.398;2023-10-31T07:22:21;14.40;99.90
54898;DHT22;40800;52.704;6.398;2023-10-31T07:24:50;14.40;99.90
54898;DHT22;40800;52.704;6.398;2023-10-31T07:27:15;14.50;99.90
54898;DHT22;40800;52.704;6.398;2023-10-31T07:29:41;14.50;99.90
54898;DHT22;40800;52.704;6.398;2023-10-31T07:32:07;14.30;99.90
54898;DHT22;40800;52.704;6.398;2023-10-31T07:34:33;14.50;99.90
54898;DHT22;40800;52.704;6.398;2023-10-31T07:36:59;13.90;99.90
54898;DHT22;40800;52.704;6.398;2023-10-31T07:39:25;14.60;99.90
54898;DHT22;40800;52.704;6.398;2023-10-31T07:41:50;13.70;99.90
54898;DHT22;40800;52.704;6.398;2023-10-31T07:44:16;14.60;99.90
54898;DHT22;40800;52.704;6.398;2023-10-31T07:46:41;13.50;99.90
54898;DHT22;40800;52.704;6.398;2023-10-31T07:49:07;14.80;99.90
54898;DHT22;40800;52.704;6.398;2023-10-31T07:51:33;13.30;99.90
54898;DHT22;40800;52.704;6.398;2023-10-31T07:53:58;13.30;99.90
54898;DHT22;40800;52.704;6.398;2023-10-31T07:56:24;14.80;99.90
54898;DHT22;40800;52.704;6.398;2023-10-31T07:58:51;14.10;99.90
54898;DHT22;40800;52.704;6.398;2023-10-31T08:01:17;13.60;99.90
54898;DHT22;40800;52.704;6.398;2023-10-31T08:03:43;13.60;99.90
54898;DHT22;40800;52.704;6.398;2023-10-31T08:06:11;13.50;99.90
54898;DHT22;40800;52.704;6.398;2023-10-31T08:08:36;14.90;99.90
54898;DHT22;40800;52.704;6.398;2023-10-31T08:11:02;13.90;99.90
54898;DHT22;40800;52.704;6.398;2023-10-31T08:13:29;13.50;99.90
54898;DHT22;40800;52.704;6.398;2023-10-31T08:15:55;14.60;99.90
54898;DHT22;40800;52.704;6.398;2023-10-31T08:18:22;13.60;99.90
54898;DHT22;40800;52.704;6.398;2023-10-31T08:20:48;14.20;99.90
54898;DHT22;40800;52.704;6.398;2023-10-31T08:23:16;15.00;99.90
54898;DHT22;40800;52.704;6.398;2023-10-31T08:25:42;15.20;99.90
54898;DHT22;40800;52.704;6.398;2023-10-31T08:28:08;13.70;99.90
54898;DHT22;40800;52.704;6.398;2023-10-31T08:30:33;15.20;99.90
54898;DHT22;40800;52.704;6.398;2023-10-31T08:32:59;15.30;99.90
54898;DHT22;40800;52.704;6.398;2023-10-31T08:35:24;15.10;99.90
54898;DHT22;40800;52.704;6.398;2023-10-31T08:37:50;15.50;99.90
54898;DHT22;40800;52.704;6.398;2023-10-31T08:40:16;14.70;99.90
54898;DHT22;40800;52.704;6.398;2023-10-31T08:42:41;14.70;99.90
54898;DHT22;40800;52.704;6.398;2023-10-31T08:45:07;14.00;99.90
54898;DHT22;40800;52.704;6.398;2023-10-31T08:47:33;15.50;99.90
54898;DHT22;40800;52.704;6.398;2023-10-31T08:49:59;15.60;99.90
54898;DHT22;40800;52.704;6.398;2023-10-31T08:52:24;15.00;99.90
54898;DHT22;40800;52.704;6.398;2023-10-31T08:54:50;15.10;99.90
54898;DHT22;40800;52.704;6.398;2023-10-31T08:57:15;15.00;99.90
54898;DHT22;40800;52.704;6.398;2023-10-31T08:59:41;15.70;99.90
54898;DHT22;40800;52.704;6.398;2023-10-31T09:02:07;15.50;99.90
54898;DHT22;40800;52.704;6.398;2023-10-31T09:04:32;15.50;99.90
54898;DHT22;40800;52.704;6.398;2023-10-31T09:06:58;14.60;99.90
54898;DHT22;40800;52.704;6.398;2023-10-31T09:09:23;14.80;99.90
54898;DHT22;40800;52.704;6.398;2023-10-31T09:11:49;14.60;99.90
54898;DHT22;40800;52.704;6.398;2023-10-31T09:14:14;15.00;99.90
54898;DHT22;40800;52.704;6.398;2023-10-31T09:16:40;15.50;99.90
54898;DHT22;40800;52.704;6.398;2023-10-31T09:19:06;15.40;99.90
54898;DHT22;40800;52.704;6.398;2023-10-31T09:21:31;15.70;99.90
54898;DHT22;40800;52.704;6.398;2023-10-31T09:23:57;15.80;99.90
54898;DHT22;40800;52.704;6.398;2023-10-31T09:26:23;14.80;99.90
54898;DHT22;40800;52.704;6.398;2023-10-31T09:28:48;15.40;99.90
54898;DHT22;40800;52.704;6.398;2023-10-31T09:31:17;15.70;99.90
54898;DHT22;40800;52.704;6.398;2023-10-31T09:33:43;15.10;99.90
54898;DHT22;40800;52.704;6.398;2023-10-31T09:36:09;15.20;99.90
54898;DHT22;40800;52.704;6.398;2023-10-31T09:38:35;15.10;99.90
54898;DHT22;40800;52.704;6.398;2023-10-31T09:41:01;15.70;99.90
54898;DHT22;40800;52.704;6.398;2023-10-31T09:43:26;15.30;99.90
54898;DHT22;40800;52.704;6.398;2023-10-31T09:45:52;15.10;99.90
54898;DHT22;40800;52.704;6.398;2023-10-31T09:48:21;15.40;99.90
54898;DHT22;40800;52.704;6.398;2023-10-31T09:50:47;15.80;99.90
54898;DHT22;40800;52.704;6.398;2023-10-31T09:53:15;15.40;99.90
54898;DHT22;40800;52.704;6.398;2023-10-31T09:55:42;15.60;99.90
54898;DHT22;40800;52.704;6.398;2023-10-31T09:58:08;15.50;99.90
54898;DHT22;40800;52.704;6.398;2023-10-31T10:00:34;15.50;99.90
54898;DHT22;40800;52.704;6.398;2023-10-31T10:03:02;15.60;99.90
54898;DHT22;40800;52.704;6.398;2023-10-31T10:05:33;15.80;99.90
54898;DHT22;40800;52.704;6.398;2023-10-31T10:08:00;15.80;99.90
54898;DHT22;40800;52.704;6.398;2023-10-31T10:10:26;16.00;99.90
54898;DHT22;40800;52.704;6.398;2023-10-31T10:12:52;16.20;99.90
54898;DHT22;40800;52.704;6.398;2023-10-31T10:15:18;16.20;99.90
54898;DHT22;40800;52.704;6.398;2023-10-31T10:17:51;16.30;99.90
54898;DHT22;40800;52.704;6.398;2023-10-31T10:20:17;16.20;99.90
54898;DHT22;40800;52.704;6.398;2023-10-31T10:22:43;16.30;99.90
54898;DHT22;40800;52.704;6.398;2023-10-31T10:25:10;16.00;99.90
54898;DHT22;40800;52.704;6.398;2023-10-31T10:27:41;16.00;99.90
54898;DHT22;40800;52.704;6.398;2023-10-31T10:30:08;15.90;99.90
54898;DHT22;40800;52.704;6.398;2023-10-31T10:32:34;15.80;99.90
54898;DHT22;40800;52.704;6.398;2023-10-31T10:34:59;15.80;99.90
54898;DHT22;40800;52.704;6.398;2023-10-31T10:37:26;16.00;99.90
54898;DHT22;40800;52.704;6.398;2023-10-31T10:39:53;15.90;99.90
54898;DHT22;40800;52.704;6.398;2023-10-31T10:42:31;15.70;99.90
54898;DHT22;40800;52.704;6.398;2023-10-31T10:45:01;15.70;99.90
54898;DHT22;40800;52.704;6.398;2023-10-31T10:47:28;15.70;99.90
54898;DHT22;40800;52.704;6.398;2023-10-31T10:49:58;15.50;99.90
54898;DHT22;40800;52.704;6.398;2023-10-31T10:52:45;15.50;99.90
54898;DHT22;40800;52.704;6.398;2023-10-31T10:55:23;15.40;99.90
54898;DHT22;40800;52.704;6.398;2023-10-31T11:00:24;15.20;99.90
54898;DHT22;40800;52.704;6.398;2023-10-31T11:02:51;15.20;99.90
54898;DHT22;40800;52.704;6.398;2023-10-31T11:05:18;15.10;99.90
54898;DHT22;40800;52.704;6.398;2023-10-31T11:07:44;15.00;99.90
54898;DHT22;40800;52.704;6.398;2023-10-31T11:10:11;15.10;99.90
54898;DHT22;40800;52.704;6.398;2023-10-31T11:12:38;15.40;99.90
54898;DHT22;40800;52.704;6.398;2023-10-31T11:15:07;15.80;99.90
54898;DHT22;40800;52.704;6.398;2023-10-31T11:17:37;16.10;99.90
54898;DHT22;40800;52.704;6.398;2023-10-31T11:20:04;16.10;99.90
54898;DHT22;40800;52.704;6.398;2023-10-31T11:22:36;16.30;99.90
54898;DHT22;40800;52.704;6.398;2023-10-31T11:25:02;16.80;99.90
54898;DHT22;40800;52.704;6.398;2023-10-31T11:27:28;17.00;99.90
54898;DHT22;40800;52.704;6.398;2023-10-31T11:29:54;17.40;99.90
54898;DHT22;40800;52.704;6.398;2023-10-31T11:32:22;17.60;99.90
54898;DHT22;40800;52.704;6.398;2023-10-31T11:34:47;17.70;99.90
54898;DHT22;40800;52.704;6.398;2023-10-31T11:37:28;18.00;99.90
54898;DHT22;40800;52.704;6.398;2023-10-31T11:40:15;17.80;99.90
54898;DHT22;40800;52.704;6.398;2023-10-31T11:42:41;17.50;99.90
54898;DHT22;40800;52.704;6.398;2023-10-31T11:45:10;17.70;99.90
54898;DHT22;40800;52.704;6.398;2023-10-31T11:50:11;18.00;99.90
54898;DHT22;40800;52.704;6.398;2023-10-31T11:52:37;18.50;99.90
54898;DHT22;40800;52.704;6.398;2023-10-31T11:55:04;18.60;99.90
54898;DHT22;40800;52.704;6.398;2023-10-31T11:57:30;18.40;99.90
54898;DHT22;40800;52.704;6.398;2023-10-31T11:59:56;18.00;99.90
54898;DHT22;40800;52.704;6.398;2023-10-31T12:02:21;17.60;99.90
54898;DHT22;40800;52.704;6.398;2023-10-31T12:04:47;17.50;99.90
54898;DHT22;40800;52.704;6.398;2023-10-31T12:07:13;17.40;99.90
54898;DHT22;40800;52.704;6.398;2023-10-31T12:09:48;17.50;99.90
54898;DHT22;40800;52.704;6.398;2023-10-31T12:12:14;17.60;99.90
54898;DHT22;40800;52.704;6.398;2023-10-31T12:14:39;17.60;99.90
54898;DHT22;40800;52.704;6.398;2023-10-31T12:17:05;17.60;99.90
54898;DHT22;40800;52.704;6.398;2023-10-31T12:19:32;17.80;99.90
54898;DHT22;40800;52.704;6.398;2023-10-31T12:21:58;17.90;99.90
54898;DHT22;40800;52.704;6.398;2023-10-31T12:24:24;18.20;99.90
54898;DHT22;40800;52.704;6.398;2023-10-31T12:26:49;18.30;99.90
54898;DHT22;40800;52.704;6.398;2023-10-31T12:29:17;18.40;99.90
54898;DHT22;40800;52.704;6.398;2023-10-31T12:31:44;18.10;99.90
54898;DHT22;40800;52.704;6.398;2023-10-31T12:34:17;18.10;99.90
54898;DHT22;40800;52.704;6.398;2023-10-31T12:36:44;17.70;99.90
54898;DHT22;40800;52.704;6.398;2023-10-31T12:39:11;17.60;99.90
54898;DHT22;40800;52.704;6.398;2023-10-31T12:41:39;18.00;99.90
54898;DHT22;40800;52.704;6.398;2023-10-31T12:44:05;17.40;99.90
54898;DHT22;40800;52.704;6.398;2023-10-31T12:46:32;17.20;99.90
54898;DHT22;40800;52.704;6.398;2023-10-31T12:48:58;17.30;99.90
54898;DHT22;40800;52.704;6.398;2023-10-31T12:51:25;17.50;99.90
54898;DHT22;40800;52.704;6.398;2023-10-31T12:53:51;17.60;99.90
54898;DHT22;40800;52.704;6.398;2023-10-31T12:59:08;18.20;99.90
54898;DHT22;40800;52.704;6.398;2023-10-31T13:01:43;18.50;99.90
54898;DHT22;40800;52.704;6.398;2023-10-31T13:04:08;18.70;99.90
54898;DHT22;40800;52.704;6.398;2023-10-31T13:06:35;19.20;99.90
54898;DHT22;40800;52.704;6.398;2023-10-31T13:09:01;19.30;99.90
54898;DHT22;40800;52.704;6.398;2023-10-31T13:11:31;19.20;99.90
54898;DHT22;40800;52.704;6.398;2023-10-31T13:13:57;19.40;99.90
54898;DHT22;40800;52.704;6.398;2023-10-31T13:16:24;19.10;99.90
54898;DHT22;40800;52.704;6.398;2023-10-31T13:18:52;18.90;99.90
54898;DHT22;40800;52.704;6.398;2023-10-31T13:21:19;18.80;99.90
54898;DHT22;40800;52.704;6.398;2023-10-31T13:23:44;18.90;99.90
54898;DHT22;40800;52.704;6.398;2023-10-31T13:26:14;18.80;99.90
54898;DHT22;40800;52.704;6.398;2023-10-31T13:28:39;18.50;99.90
54898;DHT22;40800;52.704;6.398;2023-10-31T13:31:06;18.30;99.90
54898;DHT22;40800;52.704;6.398;2023-10-31T13:33:33;18.50;99.90
54898;DHT22;40800;52.704;6.398;2023-10-31T13:35:59;18.70;99.90
54898;DHT22;40800;52.704;6.398;2023-10-31T13:38:24;19.00;99.90
54898;DHT22;40800;52.704;6.398;2023-10-31T13:40:50;19.20;99.90
54898;DHT22;40800;52.704;6.398;2023-10-31T13:43:15;19.50;99.90
54898;DHT22;40800;52.704;6.398;2023-10-31T13:45:41;19.60;99.90
54898;DHT22;40800;52.704;6.398;2023-10-31T13:48:06;19.70;99.90
54898;DHT22;40800;52.704;6.398;2023-10-31T13:50:32;19.80;99.90
54898;DHT22;40800;52.704;6.398;2023-10-31T13:52:59;19.80;99.90
54898;DHT22;40800;52.704;6.398;2023-10-31T13:55:24;19.70;99.90
54898;DHT22;40800;52.704;6.398;2023-10-31T13:57:51;19.90;99.90
54898;DHT22;40800;52.704;6.398;2023-10-31T14:00:16;19.80;99.90
54898;DHT22;40800;52.704;6.398;2023-10-31T14:02:42;19.90;99.90
54898;DHT22;40800;52.704;6.398;2023-10-31T14:05:07;19.70;99.90
54898;DHT22;40800;52.704;6.398;2023-10-31T14:07:33;20.10;99.90
54898;DHT22;40800;52.704;6.398;2023-10-31T14:10:00;20.20;99.90
54898;DHT22;40800;52.704;6.398;2023-10-31T14:12:26;20.20;99.90
54898;DHT22;40800;52.704;6.398;2023-10-31T14:14:53;20.20;99.90
54898;DHT22;40800;52.704;6.398;2023-10-31T14:17:19;20.30;99.90
54898;DHT22;40800;52.704;6.398;2023-10-31T14:19:44;20.50;99.90
54898;DHT22;40800;52.704;6.398;2023-10-31T14:22:12;20.50;99.90
54898;DHT22;40800;52.704;6.398;2023-10-31T14:24:38;20.30;99.90
54898;DHT22;40800;52.704;6.398;2023-10-31T14:27:04;20.30;99.90
54898;DHT22;40800;52.704;6.398;2023-10-31T14:29:29;20.30;99.90
54898;DHT22;40800;52.704;6.398;2023-10-31T14:31:55;20.30;99.90
54898;DHT22;40800;52.704;6.398;2023-10-31T14:34:23;20.30;99.90
54898;DHT22;40800;52.704;6.398;2023-10-31T14:36:48;20.20;99.90
54898;DHT22;40800;52.704;6.398;2023-10-31T14:39:14;20.20;99.90
54898;DHT22;40800;52.704;6.398;2023-10-31T14:41:40;20.10;99.90
54898;DHT22;40800;52.704;6.398;2023-10-31T14:44:05;20.00;99.90
54898;DHT22;40800;52.704;6.398;2023-10-31T14:46:31;19.90;99.90
54898;DHT22;40800;52.704;6.398;2023-10-31T14:49:00;19.40;99.90
54898;DHT22;40800;52.704;6.398;2023-10-31T14:51:25;19.30;99.90
54898;DHT22;40800;52.704;6.398;2023-10-31T14:53:51;19.20;99.90
54898;DHT22;40800;52.704;6.398;2023-10-31T14:56:17;19.10;99.90
54898;DHT22;40800;52.704;6.398;2023-10-31T14:58:42;19.00;99.90
54898;DHT22;40800;52.704;6.398;2023-10-31T15:01:08;18.90;99.90
54898;DHT22;40800;52.704;6.398;2023-10-31T15:03:33;18.70;99.90
54898;DHT22;40800;52.704;6.398;2023-10-31T15:05:59;18.60;99.90
54898;DHT22;40800;52.704;6.398;2023-10-31T15:08:25;18.50;99.90
54898;DHT22;40800;52.704;6.398;2023-10-31T15:10:52;18.40;99.90
54898;DHT22;40800;52.704;6.398;2023-10-31T15:13:18;18.30;99.90
54898;DHT22;40800;52.704;6.398;2023-10-31T15:15:43;18.20;99.90
54898;DHT22;40800;52.704;6.398;2023-10-31T15:18:09;18.10;99.90
54898;DHT22;40800;52.704;6.398;2023-10-31T15:20:35;18.00;99.90
54898;DHT22;40800;52.704;6.398;2023-10-31T15:23:00;17.80;99.90
54898;DHT22;40800;52.704;6.398;2023-10-31T15:25:26;17.60;99.90
54898;DHT22;40800;52.704;6.398;2023-10-31T15:27:51;17.40;99.90
54898;DHT22;40800;52.704;6.398;2023-10-31T15:30:17;17.20;99.90
54898;DHT22;40800;52.704;6.398;2023-10-31T15:32:43;17.10;99.90